sensor_id;sensor_type;location;lat;lon;timestamp;P1;durP1;ratioP1;P2;durP2;ratioP2
10469;SDS011;5282;47.052;15.458;2024-03-25T00:00:47;3.63;;;3.43;;
10469;SDS011;5282;47.052;15.458;2024-03-25T00:03:13;3.33;;;3.13;;
10469;SDS011;5282;47.052;15.458;2024-03-25T00:05:40;2.90;;;2.80;;
10469;SDS011;5282;47.052;15.458;2024-03-25T00:08:06;3.23;;;3.03;;
10469;SDS011;5282;47.052;15.458;2024-03-25T00:10:35;3.60;;;3.40;;
10469;SDS011;5282;47.052;15.458;2024-03-25T00:13:02;3.60;;;3.30;;
10469;SDS011;5282;47.052;15.458;2024-03-25T00:15:29;2.50;;;2.30;;
10469;SDS011;5282;47.052;15.458;2024-03-25T00:17:55;2.60;;;2.50;;
10469;SDS011;5282;47.052;15.458;2024-03-25T00:20:22;2.60;;;2.50;;
10469;SDS011;5282;47.052;15.458;2024-03-25T00:22:49;2.43;;;2.33;;
10469;SDS011;5282;47.052;15.458;2024-03-25T00:25:16;2.43;;;2.33;;
10469;SDS011;5282;47.052;15.458;2024-03-25T00:27:43;2.70;;;2.47;;
10469;SDS011;5282;47.052;15.458;2024-03-25T00:30:11;2.90;;;2.67;;
10469;SDS011;5282;47.052;15.458;2024-03-25T00:32:37;2.33;;;2.23;;
10469;SDS011;5282;47.052;15.458;2024-03-25T00:35:06;2.87;;;2.67;;
10469;SDS011;5282;47.052;15.458;2024-03-25T00:37:33;3.53;;;3.23;;
10469;SDS011;5282;47.052;15.458;2024-03-25T00:40:01;3.23;;;3.03;;
10469;SDS011;5282;47.052;15.458;2024-03-25T00:42:27;2.70;;;2.50;;
10469;SDS011;5282;47.052;15.458;2024-03-25T00:44:55;2.53;;;2.43;;
10469;SDS011;5282;47.052;15.458;2024-03-25T00:47:21;2.70;;;2.57;;
10469;SDS011;5282;47.052;15.458;2024-03-25T00:49:48;3.00;;;2.90;;
10469;SDS011;5282;47.052;15.458;2024-03-25T00:52:14;2.90;;;2.70;;
10469;SDS011;5282;47.052;15.458;2024-03-25T00:54:41;2.87;;;2.67;;
10469;SDS011;5282;47.052;15.458;2024-03-25T00:57:06;2.60;;;2.50;;
10469;SDS011;5282;47.052;15.458;2024-03-25T00:59:33;3.10;;;2.90;;
10469;SDS011;5282;47.052;15.458;2024-03-25T01:02:00;2.47;;;2.37;;
10469;SDS011;5282;47.052;15.458;2024-03-25T01:04:27;2.80;;;2.60;;
10469;SDS011;5282;47.052;15.458;2024-03-25T01:06:54;2.90;;;2.80;;
10469;SDS011;5282;47.052;15.458;2024-03-25T01:09:21;2.70;;;2.50;;
10469;SDS011;5282;47.052;15.458;2024-03-25T01:11:47;2.70;;;2.60;;
10469;SDS011;5282;47.052;15.458;2024-03-25T01:14:13;2.60;;;2.50;;
10469;SDS011;5282;47.052;15.458;2024-03-25T01:16:39;3.00;;;2.80;;
10469;SDS011;5282;47.052;15.458;2024-03-25T01:19:09;2.60;;;2.40;;
10469;SDS011;5282;47.052;15.458;2024-03-25T01:21:35;2.67;;;2.57;;
10469;SDS011;5282;47.052;15.458;2024-03-25T01:24:02;2.77;;;2.63;;
10469;SDS011;5282;47.052;15.458;2024-03-25T01:26:28;2.27;;;2.17;;
10469;SDS011;5282;47.052;15.458;2024-03-25T01:28:55;2.47;;;2.37;;
10469;SDS011;5282;47.052;15.458;2024-03-25T01:31:20;2.33;;;2.23;;
10469;SDS011;5282;47.052;15.458;2024-03-25T01:33:47;2.83;;;2.73;;
10469;SDS011;5282;47.052;15.458;2024-03-25T01:36:14;2.50;;;2.40;;
10469;SDS011;5282;47.052;15.458;2024-03-25T01:38:43;2.60;;;2.50;;
10469;SDS011;5282;47.052;15.458;2024-03-25T01:41:09;2.67;;;2.57;;
10469;SDS011;5282;47.052;15.458;2024-03-25T01:43:37;2.90;;;2.80;;
10469;SDS011;5282;47.052;15.458;2024-03-25T01:46:04;2.50;;;2.37;;
10469;SDS011;5282;47.052;15.458;2024-03-25T01:48:31;2.87;;;2.40;;
10469;SDS011;5282;47.052;15.458;2024-03-25T01:50:57;2.70;;;2.50;;
10469;SDS011;5282;47.052;15.458;2024-03-25T01:53:27;2.80;;;2.60;;
10469;SDS011;5282;47.052;15.458;2024-03-25T01:55:54;2.33;;;2.23;;
10469;SDS011;5282;47.052;15.458;2024-03-25T01:58:24;2.67;;;2.43;;
10469;SDS011;5282;47.052;15.458;2024-03-25T02:00:51;2.53;;;2.43;;
10469;SDS011;5282;47.052;15.458;2024-03-25T02:03:20;3.00;;;2.80;;
10469;SDS011;5282;47.052;15.458;2024-03-25T02:05:47;2.73;;;2.63;;
10469;SDS011;5282;47.052;15.458;2024-03-25T02:08:17;2.70;;;2.60;;
10469;SDS011;5282;47.052;15.458;2024-03-25T02:10:45;2.87;;;2.73;;
10469;SDS011;5282;47.052;15.458;2024-03-25T02:13:13;2.90;;;2.80;;
10469;SDS011;5282;47.052;15.458;2024-03-25T02:15:40;3.10;;;2.90;;
10469;SDS011;5282;47.052;15.458;2024-03-25T02:18:07;3.20;;;3.00;;
10469;SDS011;5282;47.052;15.458;2024-03-25T02:20:33;3.10;;;3.00;;
10469;SDS011;5282;47.052;15.458;2024-03-25T02:23:00;3.30;;;3.10;;
10469;SDS011;5282;47.052;15.458;2024-03-25T02:25:26;2.83;;;2.73;;
10469;SDS011;5282;47.052;15.458;2024-03-25T02:27:55;2.97;;;2.87;;
10469;SDS011;5282;47.052;15.458;2024-03-25T02:30:21;3.43;;;3.13;;
10469;SDS011;5282;47.052;15.458;2024-03-25T02:32:47;3.37;;;3.07;;
10469;SDS011;5282;47.052;15.458;2024-03-25T02:35:13;2.80;;;2.70;;
10469;SDS011;5282;47.052;15.458;2024-03-25T02:37:42;3.17;;;2.97;;
10469;SDS011;5282;47.052;15.458;2024-03-25T02:40:08;3.57;;;3.37;;
10469;SDS011;5282;47.052;15.458;2024-03-25T02:42:36;2.67;;;2.53;;
10469;SDS011;5282;47.052;15.458;2024-03-25T02:45:07;3.27;;;2.97;;
10469;SDS011;5282;47.052;15.458;2024-03-25T02:47:35;2.70;;;2.60;;
10469;SDS011;5282;47.052;15.458;2024-03-25T02:50:00;3.00;;;2.80;;
10469;SDS011;5282;47.052;15.458;2024-03-25T02:52:27;3.00;;;2.80;;
10469;SDS011;5282;47.052;15.458;2024-03-25T13:24:31;0.90;;;0.90;;
10469;SDS011;5282;47.052;15.458;2024-03-25T13:26:58;1.00;;;0.90;;
10469;SDS011;5282;47.052;15.458;2024-03-25T13:29:23;0.90;;;0.90;;
10469;SDS011;5282;47.052;15.458;2024-03-25T13:31:49;0.70;;;0.70;;
10469;SDS011;5282;47.052;15.458;2024-03-25T13:34:16;0.87;;;0.87;;
10469;SDS011;5282;47.052;15.458;2024-03-25T13:36:42;0.77;;;0.77;;
10469;SDS011;5282;47.052;15.458;2024-03-25T13:39:08;0.80;;;0.70;;
10469;SDS011;5282;47.052;15.458;2024-03-25T13:41:36;0.70;;;0.70;;
10469;SDS011;5282;47.052;15.458;2024-03-25T13:44:02;0.60;;;0.60;;
10469;SDS011;5282;47.052;15.458;2024-03-25T13:46:28;0.70;;;0.70;;
10469;SDS011;5282;47.052;15.458;2024-03-25T13:48:54;0.60;;;0.60;;
10469;SDS011;5282;47.052;15.458;2024-03-25T13:51:20;0.87;;;0.87;;
10469;SDS011;5282;47.052;15.458;2024-03-25T13:53:46;1.43;;;0.80;;
10469;SDS011;5282;47.052;15.458;2024-03-25T13:56:15;1.30;;;0.70;;
10469;SDS011;5282;47.052;15.458;2024-03-25T13:58:42;0.70;;;0.70;;
10469;SDS011;5282;47.052;15.458;2024-03-25T14:01:08;1.47;;;0.50;;
10469;SDS011;5282;47.052;15.458;2024-03-25T14:03:34;0.67;;;0.67;;
10469;SDS011;5282;47.052;15.458;2024-03-25T14:06:00;0.60;;;0.60;;
10469;SDS011;5282;47.052;15.458;2024-03-25T14:08:26;0.80;;;0.80;;
10469;SDS011;5282;47.052;15.458;2024-03-25T14:10:58;0.60;;;0.60;;
10469;SDS011;5282;47.052;15.458;2024-03-25T14:13:25;0.60;;;0.60;;
10469;SDS011;5282;47.052;15.458;2024-03-25T14:15:52;0.60;;;0.60;;
10469;SDS011;5282;47.052;15.458;2024-03-25T14:18:18;0.70;;;0.70;;
10469;SDS011;5282;47.052;15.458;2024-03-25T14:20:44;0.60;;;0.60;;
10469;SDS011;5282;47.052;15.458;2024-03-25T14:23:10;0.70;;;0.70;;
10469;SDS011;5282;47.052;15.458;2024-03-25T14:25:37;0.60;;;0.60;;
10469;SDS011;5282;47.052;15.458;2024-03-25T14:28:03;0.73;;;0.60;;
10469;SDS011;5282;47.052;15.458;2024-03-25T14:30:29;0.57;;;0.57;;
10469;SDS011;5282;47.052;15.458;2024-03-25T14:32:57;0.60;;;0.60;;
10469;SDS011;5282;47.052;15.458;2024-03-25T14:35:23;0.70;;;0.70;;
10469;SDS011;5282;47.052;15.458;2024-03-25T14:37:49;0.60;;;0.60;;
10469;SDS011;5282;47.052;15.458;2024-03-25T14:40:15;0.77;;;0.77;;
10469;SDS011;5282;47.052;15.458;2024-03-25T14:42:43;0.63;;;0.60;;
10469;SDS011;5282;47.052;15.458;2024-03-25T14:45:09;0.70;;;0.70;;
10469;SDS011;5282;47.052;15.458;2024-03-25T14:47:35;0.60;;;0.60;;
10469;SDS011;5282;47.052;15.458;2024-03-25T14:50:03;0.50;;;0.50;;
10469;SDS011;5282;47.052;15.458;2024-03-25T14:52:31;0.60;;;0.60;;
10469;SDS011;5282;47.052;15.458;2024-03-25T14:54:57;0.70;;;0.70;;
10469;SDS011;5282;47.052;15.458;2024-03-25T14:57:23;0.50;;;0.50;;
10469;SDS011;5282;47.052;15.458;2024-03-25T14:59:49;0.60;;;0.60;;
10469;SDS011;5282;47.052;15.458;2024-03-25T15:02:15;0.40;;;0.40;;
10469;SDS011;5282;47.052;15.458;2024-03-25T15:04:41;0.50;;;0.50;;
10469;SDS011;5282;47.052;15.458;2024-03-25T15:07:09;0.60;;;0.60;;
10469;SDS011;5282;47.052;15.458;2024-03-25T15:09:35;0.50;;;0.50;;
10469;SDS011;5282;47.052;15.458;2024-03-25T15:12:03;0.60;;;0.60;;
10469;SDS011;5282;47.052;15.458;2024-03-25T15:14:30;0.60;;;0.60;;
10469;SDS011;5282;47.052;15.458;2024-03-25T15:16:56;0.60;;;0.60;;
10469;SDS011;5282;47.052;15.458;2024-03-25T15:19:22;0.50;;;0.50;;
10469;SDS011;5282;47.052;15.458;2024-03-25T15:21:48;0.60;;;0.60;;
10469;SDS011;5282;47.052;15.458;2024-03-25T15:24:16;0.57;;;0.57;;
10469;SDS011;5282;47.052;15.458;2024-03-25T15:26:42;0.70;;;0.70;;
10469;SDS011;5282;47.052;15.458;2024-03-25T15:29:08;1.80;;;1.80;;
10469;SDS011;5282;47.052;15.458;2024-03-25T15:31:34;0.60;;;0.60;;
10469;SDS011;5282;47.052;15.458;2024-03-25T15:34:00;0.53;;;0.53;;
10469;SDS011;5282;47.052;15.458;2024-03-25T15:36:25;0.80;;;0.80;;
10469;SDS011;5282;47.052;15.458;2024-03-25T15:38:52;0.53;;;0.53;;
10469;SDS011;5282;47.052;15.458;2024-03-25T15:41:19;0.67;;;0.60;;
10469;SDS011;5282;47.052;15.458;2024-03-25T15:43:45;0.60;;;0.60;;
10469;SDS011;5282;47.052;15.458;2024-03-25T15:46:11;0.50;;;0.50;;
10469;SDS011;5282;47.052;15.458;2024-03-25T15:48:37;0.53;;;0.53;;
10469;SDS011;5282;47.052;15.458;2024-03-25T15:51:03;1.23;;;0.50;;
10469;SDS011;5282;47.052;15.458;2024-03-25T15:53:29;0.50;;;0.50;;
10469;SDS011;5282;47.052;15.458;2024-03-25T15:55:55;0.43;;;0.43;;
10469;SDS011;5282;47.052;15.458;2024-03-25T15:58:22;0.50;;;0.50;;
10469;SDS011;5282;47.052;15.458;2024-03-25T16:00:49;0.70;;;0.70;;
10469;SDS011;5282;47.052;15.458;2024-03-25T16:03:15;0.60;;;0.60;;
10469;SDS011;5282;47.052;15.458;2024-03-25T16:05:40;0.43;;;0.43;;
10469;SDS011;5282;47.052;15.458;2024-03-25T16:08:06;0.60;;;0.60;;
10469;SDS011;5282;47.052;15.458;2024-03-25T16:10:33;0.60;;;0.60;;
10469;SDS011;5282;47.052;15.458;2024-03-25T16:13:01;0.60;;;0.60;;
10469;SDS011;5282;47.052;15.458;2024-03-25T16:15:29;0.60;;;0.60;;
10469;SDS011;5282;47.052;15.458;2024-03-25T16:17:55;1.63;;;0.60;;
10469;SDS011;5282;47.052;15.458;2024-03-25T16:20:21;0.60;;;0.60;;
10469;SDS011;5282;47.052;15.458;2024-03-25T16:22:47;0.53;;;0.53;;
10469;SDS011;5282;47.052;15.458;2024-03-25T16:25:14;0.50;;;0.50;;
10469;SDS011;5282;47.052;15.458;2024-03-25T16:27:40;0.60;;;0.60;;
10469;SDS011;5282;47.052;15.458;2024-03-25T16:30:06;0.53;;;0.53;;
10469;SDS011;5282;47.052;15.458;2024-03-25T16:32:34;0.63;;;0.50;;
10469;SDS011;5282;47.052;15.458;2024-03-25T16:35:00;0.50;;;0.50;;
10469;SDS011;5282;47.052;15.458;2024-03-25T16:37:26;0.73;;;0.73;;
10469;SDS011;5282;47.052;15.458;2024-03-25T16:39:52;0.63;;;0.63;;
10469;SDS011;5282;47.052;15.458;2024-03-25T16:42:19;0.63;;;0.50;;
10469;SDS011;5282;47.052;15.458;2024-03-25T16:44:45;1.10;;;1.00;;
10469;SDS011;5282;47.052;15.458;2024-03-25T16:47:10;1.00;;;1.00;;
10469;SDS011;5282;47.052;15.458;2024-03-25T16:49:38;0.60;;;0.60;;
10469;SDS011;5282;47.052;15.458;2024-03-25T16:52:04;0.60;;;0.60;;
10469;SDS011;5282;47.052;15.458;2024-03-25T16:54:30;0.60;;;0.60;;
10469;SDS011;5282;47.052;15.458;2024-03-25T16:56:56;0.40;;;0.40;;
10469;SDS011;5282;47.052;15.458;2024-03-25T16:59:22;0.67;;;0.67;;
10469;SDS011;5282;47.052;15.458;2024-03-25T17:01:49;0.70;;;0.70;;
10469;SDS011;5282;47.052;15.458;2024-03-25T17:04:15;0.60;;;0.60;;
10469;SDS011;5282;47.052;15.458;2024-03-25T17:06:42;1.00;;;1.00;;
10469;SDS011;5282;47.052;15.458;2024-03-25T17:09:08;0.90;;;0.90;;
10469;SDS011;5282;47.052;15.458;2024-03-25T17:11:35;1.37;;;0.90;;
10469;SDS011;5282;47.052;15.458;2024-03-25T17:14:01;0.90;;;0.90;;
10469;SDS011;5282;47.052;15.458;2024-03-25T17:16:28;1.17;;;1.17;;
10469;SDS011;5282;47.052;15.458;2024-03-25T17:18:55;1.00;;;1.00;;
10469;SDS011;5282;47.052;15.458;2024-03-25T17:21:21;1.07;;;1.07;;
10469;SDS011;5282;47.052;15.458;2024-03-25T17:23:49;1.70;;;1.70;;
10469;SDS011;5282;47.052;15.458;2024-03-25T17:26:15;2.40;;;2.30;;
10469;SDS011;5282;47.052;15.458;2024-03-25T17:28:41;2.80;;;2.70;;
10469;SDS011;5282;47.052;15.458;2024-03-25T17:31:07;2.67;;;2.47;;
10469;SDS011;5282;47.052;15.458;2024-03-25T17:33:35;2.30;;;2.10;;
10469;SDS011;5282;47.052;15.458;2024-03-25T17:36:01;2.10;;;1.83;;
10469;SDS011;5282;47.052;15.458;2024-03-25T17:38:27;4.20;;;2.20;;
10469;SDS011;5282;47.052;15.458;2024-03-25T17:40:54;1.50;;;1.50;;
10469;SDS011;5282;47.052;15.458;2024-03-25T17:43:20;1.37;;;1.37;;
10469;SDS011;5282;47.052;15.458;2024-03-25T17:45:46;1.27;;;1.17;;
10469;SDS011;5282;47.052;15.458;2024-03-25T17:48:12;1.40;;;1.30;;
10469;SDS011;5282;47.052;15.458;2024-03-25T17:50:38;1.37;;;1.37;;
10469;SDS011;5282;47.052;15.458;2024-03-25T17:53:04;1.30;;;1.30;;
10469;SDS011;5282;47.052;15.458;2024-03-25T17:55:30;1.40;;;1.40;;
10469;SDS011;5282;47.052;15.458;2024-03-25T17:57:58;1.20;;;1.20;;
10469;SDS011;5282;47.052;15.458;2024-03-25T18:00:24;1.00;;;1.00;;
10469;SDS011;5282;47.052;15.458;2024-03-25T18:02:49;1.80;;;1.20;;
10469;SDS011;5282;47.052;15.458;2024-03-25T18:05:15;1.30;;;1.30;;
10469;SDS011;5282;47.052;15.458;2024-03-25T18:07:42;1.60;;;1.50;;
10469;SDS011;5282;47.052;15.458;2024-03-25T18:10:09;1.43;;;1.40;;
10469;SDS011;5282;47.052;15.458;2024-03-25T18:12:35;1.40;;;1.40;;
10469;SDS011;5282;47.052;15.458;2024-03-25T18:15:03;1.93;;;1.83;;
10469;SDS011;5282;47.052;15.458;2024-03-25T18:17:31;2.27;;;2.17;;
10469;SDS011;5282;47.052;15.458;2024-03-25T18:19:57;2.40;;;2.30;;
10469;SDS011;5282;47.052;15.458;2024-03-25T18:22:23;2.50;;;2.40;;
10469;SDS011;5282;47.052;15.458;2024-03-25T18:24:49;2.60;;;2.50;;
10469;SDS011;5282;47.052;15.458;2024-03-25T18:27:15;2.30;;;2.20;;
10469;SDS011;5282;47.052;15.458;2024-03-25T18:29:41;3.70;;;3.50;;
10469;SDS011;5282;47.052;15.458;2024-03-25T18:32:09;3.97;;;3.77;;
10469;SDS011;5282;47.052;15.458;2024-03-25T18:34:35;5.10;;;4.70;;
10469;SDS011;5282;47.052;15.458;2024-03-25T18:37:01;4.73;;;4.53;;
10469;SDS011;5282;47.052;15.458;2024-03-25T18:39:27;5.07;;;4.73;;
10469;SDS011;5282;47.052;15.458;2024-03-25T18:41:53;2.27;;;2.17;;
10469;SDS011;5282;47.052;15.458;2024-03-25T18:44:19;1.83;;;1.73;;
10469;SDS011;5282;47.052;15.458;2024-03-25T18:46:45;1.50;;;1.50;;
10469;SDS011;5282;47.052;15.458;2024-03-25T18:49:12;1.67;;;1.57;;
10469;SDS011;5282;47.052;15.458;2024-03-25T18:51:38;1.37;;;1.37;;
10469;SDS011;5282;47.052;15.458;2024-03-25T18:54:04;1.80;;;1.60;;
10469;SDS011;5282;47.052;15.458;2024-03-25T18:56:30;2.20;;;1.80;;
10469;SDS011;5282;47.052;15.458;2024-03-25T18:58:56;1.93;;;1.90;;
10469;SDS011;5282;47.052;15.458;2024-03-25T19:01:22;1.83;;;1.73;;
10469;SDS011;5282;47.052;15.458;2024-03-25T19:03:48;1.90;;;1.80;;
10469;SDS011;5282;47.052;15.458;2024-03-25T19:06:16;1.70;;;1.60;;
10469;SDS011;5282;47.052;15.458;2024-03-25T19:08:42;2.23;;;1.77;;
10469;SDS011;5282;47.052;15.458;2024-03-25T19:11:07;2.03;;;1.93;;
10469;SDS011;5282;47.052;15.458;2024-03-25T19:13:33;1.80;;;1.80;;
10469;SDS011;5282;47.052;15.458;2024-03-25T19:15:59;1.57;;;1.57;;
10469;SDS011;5282;47.052;15.458;2024-03-25T19:18:25;2.00;;;1.90;;
10469;SDS011;5282;47.052;15.458;2024-03-25T19:20:51;2.07;;;1.97;;
10469;SDS011;5282;47.052;15.458;2024-03-25T19:23:21;2.20;;;2.10;;
10469;SDS011;5282;47.052;15.458;2024-03-25T19:25:47;2.10;;;2.00;;
10469;SDS011;5282;47.052;15.458;2024-03-25T19:28:13;3.90;;;2.17;;
10469;SDS011;5282;47.052;15.458;2024-03-25T19:30:39;1.93;;;1.83;;
10469;SDS011;5282;47.052;15.458;2024-03-25T19:33:05;2.33;;;2.23;;
10469;SDS011;5282;47.052;15.458;2024-03-25T19:35:31;2.27;;;2.17;;
10469;SDS011;5282;47.052;15.458;2024-03-25T19:37:57;2.80;;;2.70;;
10469;SDS011;5282;47.052;15.458;2024-03-25T19:40:24;2.10;;;2.00;;
10469;SDS011;5282;47.052;15.458;2024-03-25T19:42:51;2.30;;;2.20;;
10469;SDS011;5282;47.052;15.458;2024-03-25T19:45:17;2.20;;;2.10;;
10469;SDS011;5282;47.052;15.458;2024-03-25T19:47:44;1.80;;;1.70;;
10469;SDS011;5282;47.052;15.458;2024-03-25T19:50:09;1.80;;;1.77;;
10469;SDS011;5282;47.052;15.458;2024-03-25T19:52:35;1.53;;;1.50;;
10469;SDS011;5282;47.052;15.458;2024-03-25T19:55:01;1.73;;;1.63;;
10469;SDS011;5282;47.052;15.458;2024-03-25T19:57:30;1.60;;;1.50;;
10469;SDS011;5282;47.052;15.458;2024-03-25T19:59:56;1.80;;;1.70;;
10469;SDS011;5282;47.052;15.458;2024-03-25T20:02:22;1.43;;;1.43;;
10469;SDS011;5282;47.052;15.458;2024-03-25T20:04:51;1.40;;;1.40;;
10469;SDS011;5282;47.052;15.458;2024-03-25T20:07:18;1.60;;;1.50;;
10469;SDS011;5282;47.052;15.458;2024-03-25T20:09:44;2.30;;;1.80;;
10469;SDS011;5282;47.052;15.458;2024-03-25T20:12:10;2.23;;;2.13;;
10469;SDS011;5282;47.052;15.458;2024-03-25T20:14:37;1.90;;;1.90;;
10469;SDS011;5282;47.052;15.458;2024-03-25T20:17:03;1.80;;;1.80;;
10469;SDS011;5282;47.052;15.458;2024-03-25T20:19:29;1.90;;;1.80;;
10469;SDS011;5282;47.052;15.458;2024-03-25T20:21:55;1.63;;;1.53;;
10469;SDS011;5282;47.052;15.458;2024-03-25T20:24:21;1.60;;;1.50;;
10469;SDS011;5282;47.052;15.458;2024-03-25T20:26:47;1.90;;;1.80;;
10469;SDS011;5282;47.052;15.458;2024-03-25T20:29:13;1.70;;;1.70;;
10469;SDS011;5282;47.052;15.458;2024-03-25T20:31:41;2.07;;;1.87;;
10469;SDS011;5282;47.052;15.458;2024-03-25T20:34:07;1.80;;;1.70;;
10469;SDS011;5282;47.052;15.458;2024-03-25T20:36:33;1.43;;;1.43;;
10469;SDS011;5282;47.052;15.458;2024-03-25T20:38:59;1.77;;;1.67;;
10469;SDS011;5282;47.052;15.458;2024-03-25T20:41:25;1.53;;;1.47;;
10469;SDS011;5282;47.052;15.458;2024-03-25T20:43:51;1.60;;;1.50;;
10469;SDS011;5282;47.052;15.458;2024-03-25T20:46:17;1.53;;;1.53;;
10469;SDS011;5282;47.052;15.458;2024-03-25T20:48:44;1.80;;;1.70;;
10469;SDS011;5282;47.052;15.458;2024-03-25T20:51:10;1.83;;;1.80;;
10469;SDS011;5282;47.052;15.458;2024-03-25T20:53:36;1.60;;;1.60;;
10469;SDS011;5282;47.052;15.458;2024-03-25T20:56:02;1.70;;;1.70;;
10469;SDS011;5282;47.052;15.458;2024-03-25T20:58:29;1.83;;;1.73;;
10469;SDS011;5282;47.052;15.458;2024-03-25T21:00:55;2.00;;;1.90;;
10469;SDS011;5282;47.052;15.458;2024-03-25T21:03:21;2.33;;;1.77;;
10469;SDS011;5282;47.052;15.458;2024-03-25T21:05:55;1.63;;;1.53;;
10469;SDS011;5282;47.052;15.458;2024-03-25T21:08:22;1.83;;;1.73;;
10469;SDS011;5282;47.052;15.458;2024-03-25T21:10:48;1.70;;;1.70;;
10469;SDS011;5282;47.052;15.458;2024-03-25T21:13:14;1.60;;;1.50;;
10469;SDS011;5282;47.052;15.458;2024-03-25T21:15:40;1.93;;;1.83;;
10469;SDS011;5282;47.052;15.458;2024-03-25T21:18:06;1.83;;;1.73;;
10469;SDS011;5282;47.052;15.458;2024-03-25T21:20:32;1.90;;;1.80;;
10469;SDS011;5282;47.052;15.458;2024-03-25T21:22:59;1.63;;;1.60;;
10469;SDS011;5282;47.052;15.458;2024-03-25T21:25:26;1.70;;;1.60;;
10469;SDS011;5282;47.052;15.458;2024-03-25T21:27:52;1.70;;;1.60;;
10469;SDS011;5282;47.052;15.458;2024-03-25T21:30:18;2.30;;;2.10;;
10469;SDS011;5282;47.052;15.458;2024-03-25T21:32:44;1.77;;;1.70;;
10469;SDS011;5282;47.052;15.458;2024-03-25T21:35:10;1.80;;;1.70;;
10469;SDS011;5282;47.052;15.458;2024-03-25T21:37:36;1.90;;;1.70;;
10469;SDS011;5282;47.052;15.458;2024-03-25T21:40:04;2.90;;;1.70;;
10469;SDS011;5282;47.052;15.458;2024-03-25T21:42:32;1.67;;;1.67;;
10469;SDS011;5282;47.052;15.458;2024-03-25T21:44:58;1.70;;;1.70;;
10469;SDS011;5282;47.052;15.458;2024-03-25T21:47:24;1.57;;;1.53;;
10469;SDS011;5282;47.052;15.458;2024-03-25T21:49:50;1.90;;;1.80;;
10469;SDS011;5282;47.052;15.458;2024-03-25T21:52:16;2.13;;;2.03;;
10469;SDS011;5282;47.052;15.458;2024-03-25T21:54:42;1.60;;;1.60;;
10469;SDS011;5282;47.052;15.458;2024-03-25T21:57:10;1.83;;;1.73;;
10469;SDS011;5282;47.052;15.458;2024-03-25T21:59:36;1.50;;;1.50;;
10469;SDS011;5282;47.052;15.458;2024-03-25T22:02:02;1.50;;;1.50;;
10469;SDS011;5282;47.052;15.458;2024-03-25T22:04:28;1.63;;;1.63;;
10469;SDS011;5282;47.052;15.458;2024-03-25T22:06:54;1.70;;;1.60;;
10469;SDS011;5282;47.052;15.458;2024-03-25T22:09:20;1.67;;;1.57;;
10469;SDS011;5282;47.052;15.458;2024-03-25T22:11:46;1.73;;;1.63;;
10469;SDS011;5282;47.052;15.458;2024-03-25T22:14:13;1.87;;;1.77;;
10469;SDS011;5282;47.052;15.458;2024-03-25T22:16:39;2.20;;;1.67;;
10469;SDS011;5282;47.052;15.458;2024-03-25T22:19:05;1.97;;;1.87;;
10469;SDS011;5282;47.052;15.458;2024-03-25T22:21:32;1.47;;;1.47;;
10469;SDS011;5282;47.052;15.458;2024-03-25T22:24:00;2.07;;;1.97;;
10469;SDS011;5282;47.052;15.458;2024-03-25T22:26:27;1.77;;;1.73;;
10469;SDS011;5282;47.052;15.458;2024-03-25T22:28:53;1.60;;;1.60;;
10469;SDS011;5282;47.052;15.458;2024-03-25T22:31:21;1.90;;;1.80;;
10469;SDS011;5282;47.052;15.458;2024-03-25T22:33:47;1.73;;;1.67;;
10469;SDS011;5282;47.052;15.458;2024-03-25T22:36:13;1.50;;;1.50;;
10469;SDS011;5282;47.052;15.458;2024-03-25T22:38:39;2.00;;;1.90;;
10469;SDS011;5282;47.052;15.458;2024-03-25T22:41:05;1.80;;;1.70;;
10469;SDS011;5282;47.052;15.458;2024-03-25T22:43:31;2.00;;;1.90;;
10469;SDS011;5282;47.052;15.458;2024-03-25T22:45:57;1.70;;;1.70;;
10469;SDS011;5282;47.052;15.458;2024-03-25T22:48:25;2.37;;;2.07;;
10469;SDS011;5282;47.052;15.458;2024-03-25T22:50:55;1.93;;;1.83;;
10469;SDS011;5282;47.052;15.458;2024-03-25T22:53:22;1.83;;;1.70;;
10469;SDS011;5282;47.052;15.458;2024-03-25T22:55:58;1.70;;;1.70;;
10469;SDS011;5282;47.052;15.458;2024-03-25T22:58:25;1.67;;;1.67;;
10469;SDS011;5282;47.052;15.458;2024-03-25T23:00:51;1.60;;;1.60;;
10469;SDS011;5282;47.052;15.458;2024-03-25T23:03:18;1.60;;;1.60;;
10469;SDS011;5282;47.052;15.458;2024-03-25T23:05:45;1.60;;;1.50;;
10469;SDS011;5282;47.052;15.458;2024-03-25T23:08:18;1.93;;;1.80;;
10469;SDS011;5282;47.052;15.458;2024-03-25T23:10:44;1.67;;;1.67;;
10469;SDS011;5282;47.052;15.458;2024-03-25T23:13:10;2.40;;;2.23;;
10469;SDS011;5282;47.052;15.458;2024-03-25T23:15:36;2.23;;;2.13;;
10469;SDS011;5282;47.052;15.458;2024-03-25T23:18:02;1.87;;;1.77;;
10469;SDS011;5282;47.052;15.458;2024-03-25T23:20:28;1.97;;;1.87;;
10469;SDS011;5282;47.052;15.458;2024-03-25T23:22:55;1.70;;;1.70;;
10469;SDS011;5282;47.052;15.458;2024-03-25T23:25:21;1.80;;;1.80;;
10469;SDS011;5282;47.052;15.458;2024-03-25T23:27:47;1.80;;;1.70;;
10469;SDS011;5282;47.052;15.458;2024-03-25T23:30:13;3.20;;;1.97;;
10469;SDS011;5282;47.052;15.458;2024-03-25T23:32:39;1.50;;;1.50;;
10469;SDS011;5282;47.052;15.458;2024-03-25T23:35:05;1.93;;;1.83;;
10469;SDS011;5282;47.052;15.458;2024-03-25T23:37:31;1.97;;;1.87;;
10469;SDS011;5282;47.052;15.458;2024-03-25T23:39:59;2.10;;;2.00;;
10469;SDS011;5282;47.052;15.458;2024-03-25T23:42:25;1.80;;;1.70;;
10469;SDS011;5282;47.052;15.458;2024-03-25T23:44:51;1.73;;;1.70;;
10469;SDS011;5282;47.052;15.458;2024-03-25T23:47:17;1.50;;;1.50;;
10469;SDS011;5282;47.052;15.458;2024-03-25T23:49:45;1.87;;;1.77;;
10469;SDS011;5282;47.052;15.458;2024-03-25T23:52:11;2.93;;;1.70;;
10469;SDS011;5282;47.052;15.458;2024-03-25T23:54:37;1.60;;;1.57;;
10469;SDS011;5282;47.052;15.458;2024-03-25T23:57:06;2.00;;;1.90;;
10469;SDS011;5282;47.052;15.458;2024-03-25T23:59:33;2.07;;;1.97;;
